sensor_id;sensor_type;location;lat;lon;timestamp;P1;durP1;ratioP1;P2;durP2;ratioP2
43883;SDS011;29544;52.018;5.810;2023-04-16T00:00:02;6.27;;;2.20;;
43883;SDS011;29544;52.018;5.810;2023-04-16T00:04:54;8.68;;;2.47;;
43883;SDS011;29544;52.018;5.810;2023-04-16T00:07:20;7.27;;;1.90;;
43883;SDS011;29544;52.018;5.810;2023-04-16T00:09:45;6.27;;;2.50;;
43883;SDS011;29544;52.018;5.810;2023-04-16T00:12:11;6.73;;;2.40;;
43883;SDS011;29544;52.018;5.810;2023-04-16T00:14:37;6.37;;;2.63;;
43883;SDS011;29544;52.018;5.810;2023-04-16T00:17:02;5.50;;;2.40;;
43883;SDS011;29544;52.018;5.810;2023-04-16T00:19:28;6.53;;;2.63;;
43883;SDS011;29544;52.018;5.810;2023-04-16T00:21:53;6.83;;;2.77;;
43883;SDS011;29544;52.018;5.810;2023-04-16T00:24:19;8.23;;;2.73;;
43883;SDS011;29544;52.018;5.810;2023-04-16T00:26:45;10.30;;;3.63;;
43883;SDS011;29544;52.018;5.810;2023-04-16T00:29:10;7.90;;;2.50;;
43883;SDS011;29544;52.018;5.810;2023-04-16T00:31:36;8.52;;;2.35;;
43883;SDS011;29544;52.018;5.810;2023-04-16T00:34:02;7.83;;;2.93;;
43883;SDS011;29544;52.018;5.810;2023-04-16T00:36:28;7.23;;;3.00;;
43883;SDS011;29544;52.018;5.810;2023-04-16T00:38:54;7.23;;;2.73;;
43883;SDS011;29544;52.018;5.810;2023-04-16T00:41:20;7.88;;;3.13;;
43883;SDS011;29544;52.018;5.810;2023-04-16T00:46:12;8.50;;;2.70;;
43883;SDS011;29544;52.018;5.810;2023-04-16T00:48:39;8.23;;;3.45;;
43883;SDS011;29544;52.018;5.810;2023-04-16T00:51:07;8.13;;;3.35;;
43883;SDS011;29544;52.018;5.810;2023-04-16T00:55:58;9.05;;;3.45;;
43883;SDS011;29544;52.018;5.810;2023-04-16T00:58:26;8.10;;;3.97;;
43883;SDS011;29544;52.018;5.810;2023-04-16T01:00:53;9.82;;;4.00;;
43883;SDS011;29544;52.018;5.810;2023-04-16T01:03:19;9.13;;;3.23;;
43883;SDS011;29544;52.018;5.810;2023-04-16T01:05:44;9.57;;;4.23;;
43883;SDS011;29544;52.018;5.810;2023-04-16T01:08:16;15.50;;;3.83;;
43883;SDS011;29544;52.018;5.810;2023-04-16T01:10:46;9.73;;;3.92;;
43883;SDS011;29544;52.018;5.810;2023-04-16T01:13:11;10.10;;;3.73;;
43883;SDS011;29544;52.018;5.810;2023-04-16T01:15:37;12.07;;;3.90;;
43883;SDS011;29544;52.018;5.810;2023-04-16T01:18:16;8.37;;;3.90;;
43883;SDS011;29544;52.018;5.810;2023-04-16T01:20:43;11.40;;;4.03;;
43883;SDS011;29544;52.018;5.810;2023-04-16T01:23:09;9.80;;;4.10;;
43883;SDS011;29544;52.018;5.810;2023-04-16T01:25:35;12.35;;;4.50;;
43883;SDS011;29544;52.018;5.810;2023-04-16T01:28:00;10.27;;;4.37;;
43883;SDS011;29544;52.018;5.810;2023-04-16T01:30:26;10.27;;;4.10;;
43883;SDS011;29544;52.018;5.810;2023-04-16T01:32:52;10.30;;;3.97;;
43883;SDS011;29544;52.018;5.810;2023-04-16T01:35:17;10.87;;;4.47;;
43883;SDS011;29544;52.018;5.810;2023-04-16T01:37:43;8.93;;;4.00;;
43883;SDS011;29544;52.018;5.810;2023-04-16T01:40:09;11.67;;;5.03;;
43883;SDS011;29544;52.018;5.810;2023-04-16T01:42:35;10.63;;;4.40;;
43883;SDS011;29544;52.018;5.810;2023-04-16T01:45:01;11.38;;;4.80;;
43883;SDS011;29544;52.018;5.810;2023-04-16T01:47:27;12.43;;;4.70;;
43883;SDS011;29544;52.018;5.810;2023-04-16T01:49:52;8.53;;;3.90;;
43883;SDS011;29544;52.018;5.810;2023-04-16T01:52:18;12.83;;;5.37;;
43883;SDS011;29544;52.018;5.810;2023-04-16T01:54:43;10.10;;;4.87;;
43883;SDS011;29544;52.018;5.810;2023-04-16T01:57:09;11.40;;;5.13;;
43883;SDS011;29544;52.018;5.810;2023-04-16T01:59:35;12.70;;;4.80;;
43883;SDS011;29544;52.018;5.810;2023-04-16T02:02:06;9.20;;;4.77;;
43883;SDS011;29544;52.018;5.810;2023-04-16T02:04:36;13.30;;;5.45;;
43883;SDS011;29544;52.018;5.810;2023-04-16T02:07:03;15.77;;;5.93;;
43883;SDS011;29544;52.018;5.810;2023-04-16T02:09:29;11.90;;;4.70;;
43883;SDS011;29544;52.018;5.810;2023-04-16T02:11:57;14.18;;;5.38;;
43883;SDS011;29544;52.018;5.810;2023-04-16T02:14:23;11.83;;;5.40;;
43883;SDS011;29544;52.018;5.810;2023-04-16T02:16:49;12.98;;;4.95;;
43883;SDS011;29544;52.018;5.810;2023-04-16T02:19:15;11.30;;;5.18;;
43883;SDS011;29544;52.018;5.810;2023-04-16T02:21:41;13.77;;;6.00;;
43883;SDS011;29544;52.018;5.810;2023-04-16T02:24:06;11.63;;;4.93;;
43883;SDS011;29544;52.018;5.810;2023-04-16T02:26:32;12.17;;;5.13;;
43883;SDS011;29544;52.018;5.810;2023-04-16T02:28:58;12.13;;;5.07;;
43883;SDS011;29544;52.018;5.810;2023-04-16T02:31:23;11.70;;;5.53;;
43883;SDS011;29544;52.018;5.810;2023-04-16T02:33:49;11.90;;;4.90;;
43883;SDS011;29544;52.018;5.810;2023-04-16T02:36:14;14.27;;;6.00;;
43883;SDS011;29544;52.018;5.810;2023-04-16T02:38:40;15.73;;;6.27;;
43883;SDS011;29544;52.018;5.810;2023-04-16T02:41:05;10.93;;;4.87;;
43883;SDS011;29544;52.018;5.810;2023-04-16T02:43:31;13.47;;;5.83;;
43883;SDS011;29544;52.018;5.810;2023-04-16T02:45:56;13.20;;;5.27;;
43883;SDS011;29544;52.018;5.810;2023-04-16T02:48:23;11.48;;;5.70;;
43883;SDS011;29544;52.018;5.810;2023-04-16T02:50:48;15.33;;;7.07;;
43883;SDS011;29544;52.018;5.810;2023-04-16T02:53:14;14.50;;;6.47;;
43883;SDS011;29544;52.018;5.810;2023-04-16T02:55:39;18.33;;;6.97;;
43883;SDS011;29544;52.018;5.810;2023-04-16T02:58:05;14.03;;;5.77;;
43883;SDS011;29544;52.018;5.810;2023-04-16T03:00:31;13.83;;;6.00;;
43883;SDS011;29544;52.018;5.810;2023-04-16T03:02:56;11.53;;;5.57;;
43883;SDS011;29544;52.018;5.810;2023-04-16T03:05:22;15.93;;;6.37;;
43883;SDS011;29544;52.018;5.810;2023-04-16T03:07:47;15.03;;;6.73;;
43883;SDS011;29544;52.018;5.810;2023-04-16T03:10:14;15.18;;;6.57;;
43883;SDS011;29544;52.018;5.810;2023-04-16T03:12:40;9.93;;;5.93;;
43883;SDS011;29544;52.018;5.810;2023-04-16T03:15:06;15.10;;;6.47;;
43883;SDS011;29544;52.018;5.810;2023-04-16T03:17:32;13.43;;;6.03;;
43883;SDS011;29544;52.018;5.810;2023-04-16T03:19:57;14.20;;;6.97;;
43883;SDS011;29544;52.018;5.810;2023-04-16T03:22:23;16.70;;;6.70;;
43883;SDS011;29544;52.018;5.810;2023-04-16T03:24:49;12.00;;;6.93;;
43883;SDS011;29544;52.018;5.810;2023-04-16T03:27:14;11.37;;;6.63;;
43883;SDS011;29544;52.018;5.810;2023-04-16T03:29:40;20.63;;;7.83;;
43883;SDS011;29544;52.018;5.810;2023-04-16T03:32:05;10.47;;;6.23;;
43883;SDS011;29544;52.018;5.810;2023-04-16T03:34:31;11.87;;;5.57;;
43883;SDS011;29544;52.018;5.810;2023-04-16T03:36:56;14.87;;;6.67;;
43883;SDS011;29544;52.018;5.810;2023-04-16T03:39:22;17.87;;;8.07;;
43883;SDS011;29544;52.018;5.810;2023-04-16T03:41:47;15.97;;;6.53;;
43883;SDS011;29544;52.018;5.810;2023-04-16T03:44:13;14.57;;;7.40;;
43883;SDS011;29544;52.018;5.810;2023-04-16T03:46:38;14.17;;;6.57;;
43883;SDS011;29544;52.018;5.810;2023-04-16T03:49:04;16.00;;;7.43;;
43883;SDS011;29544;52.018;5.810;2023-04-16T03:51:30;14.17;;;6.83;;
43883;SDS011;29544;52.018;5.810;2023-04-16T03:53:55;15.13;;;7.23;;
43883;SDS011;29544;52.018;5.810;2023-04-16T03:56:21;15.23;;;7.27;;
43883;SDS011;29544;52.018;5.810;2023-04-16T03:58:46;21.13;;;7.60;;
43883;SDS011;29544;52.018;5.810;2023-04-16T04:01:12;13.97;;;7.17;;
43883;SDS011;29544;52.018;5.810;2023-04-16T04:03:37;15.33;;;7.37;;
43883;SDS011;29544;52.018;5.810;2023-04-16T04:06:06;17.57;;;8.33;;
43883;SDS011;29544;52.018;5.810;2023-04-16T04:08:33;16.40;;;7.93;;
43883;SDS011;29544;52.018;5.810;2023-04-16T04:10:58;16.90;;;7.43;;
43883;SDS011;29544;52.018;5.810;2023-04-16T04:13:24;15.90;;;7.50;;
43883;SDS011;29544;52.018;5.810;2023-04-16T04:15:51;14.90;;;7.05;;
43883;SDS011;29544;52.018;5.810;2023-04-16T04:18:16;19.83;;;8.07;;
43883;SDS011;29544;52.018;5.810;2023-04-16T04:20:43;18.57;;;8.77;;
43883;SDS011;29544;52.018;5.810;2023-04-16T04:25:34;17.63;;;9.18;;
43883;SDS011;29544;52.018;5.810;2023-04-16T04:27:59;18.77;;;8.00;;
43883;SDS011;29544;52.018;5.810;2023-04-16T04:30:25;16.40;;;8.00;;
43883;SDS011;29544;52.018;5.810;2023-04-16T04:32:50;17.70;;;8.80;;
43883;SDS011;29544;52.018;5.810;2023-04-16T04:35:16;18.70;;;8.70;;
43883;SDS011;29544;52.018;5.810;2023-04-16T04:37:42;18.23;;;9.07;;
43883;SDS011;29544;52.018;5.810;2023-04-16T04:40:07;19.70;;;8.87;;
43883;SDS011;29544;52.018;5.810;2023-04-16T04:42:33;18.00;;;8.88;;
43883;SDS011;29544;52.018;5.810;2023-04-16T04:44:59;22.07;;;9.20;;
43883;SDS011;29544;52.018;5.810;2023-04-16T04:47:24;17.30;;;8.60;;
43883;SDS011;29544;52.018;5.810;2023-04-16T04:49:50;18.37;;;9.10;;
43883;SDS011;29544;52.018;5.810;2023-04-16T04:52:15;21.47;;;9.23;;
43883;SDS011;29544;52.018;5.810;2023-04-16T04:54:41;17.33;;;8.87;;
43883;SDS011;29544;52.018;5.810;2023-04-16T04:57:06;16.70;;;8.33;;
43883;SDS011;29544;52.018;5.810;2023-04-16T04:59:32;22.40;;;9.57;;
43883;SDS011;29544;52.018;5.810;2023-04-16T05:01:58;16.67;;;9.10;;
43883;SDS011;29544;52.018;5.810;2023-04-16T05:04:23;20.98;;;10.00;;
43883;SDS011;29544;52.018;5.810;2023-04-16T05:06:49;14.57;;;8.77;;
43883;SDS011;29544;52.018;5.810;2023-04-16T05:09:15;19.50;;;10.07;;
43883;SDS011;29544;52.018;5.810;2023-04-16T05:11:41;16.52;;;9.10;;
43883;SDS011;29544;52.018;5.810;2023-04-16T05:14:07;19.13;;;9.77;;
43883;SDS011;29544;52.018;5.810;2023-04-16T05:16:35;20.17;;;10.17;;
43883;SDS011;29544;52.018;5.810;2023-04-16T05:19:01;18.73;;;9.10;;
43883;SDS011;29544;52.018;5.810;2023-04-16T05:21:27;22.60;;;11.07;;
43883;SDS011;29544;52.018;5.810;2023-04-16T05:23:53;17.07;;;9.00;;
43883;SDS011;29544;52.018;5.810;2023-04-16T05:26:18;16.87;;;9.93;;
43883;SDS011;29544;52.018;5.810;2023-04-16T05:28:44;22.30;;;10.30;;
43883;SDS011;29544;52.018;5.810;2023-04-16T05:31:10;16.63;;;9.50;;
43883;SDS011;29544;52.018;5.810;2023-04-16T05:33:35;16.23;;;9.10;;
43883;SDS011;29544;52.018;5.810;2023-04-16T05:36:01;16.43;;;9.07;;
43883;SDS011;29544;52.018;5.810;2023-04-16T05:38:26;17.43;;;9.33;;
43883;SDS011;29544;52.018;5.810;2023-04-16T05:40:52;18.50;;;8.93;;
43883;SDS011;29544;52.018;5.810;2023-04-16T05:43:17;15.20;;;8.40;;
43883;SDS011;29544;52.018;5.810;2023-04-16T05:45:43;15.67;;;8.50;;
43883;SDS011;29544;52.018;5.810;2023-04-16T05:48:09;15.73;;;8.10;;
43883;SDS011;29544;52.018;5.810;2023-04-16T05:50:34;17.50;;;8.77;;
43883;SDS011;29544;52.018;5.810;2023-04-16T05:53:01;14.68;;;8.05;;
43883;SDS011;29544;52.018;5.810;2023-04-16T05:55:27;18.08;;;8.43;;
43883;SDS011;29544;52.018;5.810;2023-04-16T05:57:53;14.70;;;7.37;;
43883;SDS011;29544;52.018;5.810;2023-04-16T06:00:19;16.30;;;8.40;;
43883;SDS011;29544;52.018;5.810;2023-04-16T06:02:44;18.02;;;9.13;;
43883;SDS011;29544;52.018;5.810;2023-04-16T06:05:10;17.40;;;8.97;;
43883;SDS011;29544;52.018;5.810;2023-04-16T06:07:35;15.17;;;8.23;;
43883;SDS011;29544;52.018;5.810;2023-04-16T06:10:01;14.63;;;8.03;;
43883;SDS011;29544;52.018;5.810;2023-04-16T06:12:26;18.10;;;7.67;;
43883;SDS011;29544;52.018;5.810;2023-04-16T06:14:52;13.50;;;7.87;;
43883;SDS011;29544;52.018;5.810;2023-04-16T06:17:17;14.43;;;7.57;;
43883;SDS011;29544;52.018;5.810;2023-04-16T06:19:43;10.67;;;7.07;;
43883;SDS011;29544;52.018;5.810;2023-04-16T06:22:09;16.63;;;7.87;;
43883;SDS011;29544;52.018;5.810;2023-04-16T06:24:34;16.07;;;8.33;;
43883;SDS011;29544;52.018;5.810;2023-04-16T06:27:00;13.60;;;7.70;;
43883;SDS011;29544;52.018;5.810;2023-04-16T06:29:26;15.68;;;7.97;;
43883;SDS011;29544;52.018;5.810;2023-04-16T06:31:52;15.87;;;7.67;;
43883;SDS011;29544;52.018;5.810;2023-04-16T06:34:18;13.57;;;7.47;;
43883;SDS011;29544;52.018;5.810;2023-04-16T06:36:43;13.90;;;6.73;;
43883;SDS011;29544;52.018;5.810;2023-04-16T06:39:09;14.27;;;6.67;;
43883;SDS011;29544;52.018;5.810;2023-04-16T06:41:35;12.83;;;7.70;;
43883;SDS011;29544;52.018;5.810;2023-04-16T06:44:00;18.10;;;8.77;;
43883;SDS011;29544;52.018;5.810;2023-04-16T06:46:26;17.07;;;7.83;;
43883;SDS011;29544;52.018;5.810;2023-04-16T06:48:51;14.67;;;7.30;;
43883;SDS011;29544;52.018;5.810;2023-04-16T06:51:17;16.17;;;7.57;;
43883;SDS011;29544;52.018;5.810;2023-04-16T06:53:42;12.27;;;7.50;;
43883;SDS011;29544;52.018;5.810;2023-04-16T06:56:08;14.07;;;7.00;;
43883;SDS011;29544;52.018;5.810;2023-04-16T06:58:34;14.10;;;7.47;;
43883;SDS011;29544;52.018;5.810;2023-04-16T07:01:00;16.40;;;8.57;;
43883;SDS011;29544;52.018;5.810;2023-04-16T07:03:26;14.32;;;7.53;;
43883;SDS011;29544;52.018;5.810;2023-04-16T07:05:52;13.23;;;7.37;;
43883;SDS011;29544;52.018;5.810;2023-04-16T07:08:17;12.00;;;7.43;;
43883;SDS011;29544;52.018;5.810;2023-04-16T07:10:43;14.50;;;7.57;;
43883;SDS011;29544;52.018;5.810;2023-04-16T07:13:09;14.10;;;7.53;;
43883;SDS011;29544;52.018;5.810;2023-04-16T07:15:34;15.47;;;8.40;;
43883;SDS011;29544;52.018;5.810;2023-04-16T07:18:00;14.10;;;7.57;;
43883;SDS011;29544;52.018;5.810;2023-04-16T07:20:25;17.87;;;7.63;;
43883;SDS011;29544;52.018;5.810;2023-04-16T07:22:51;20.47;;;7.23;;
43883;SDS011;29544;52.018;5.810;2023-04-16T07:25:17;15.23;;;7.50;;
43883;SDS011;29544;52.018;5.810;2023-04-16T07:27:42;16.03;;;8.43;;
43883;SDS011;29544;52.018;5.810;2023-04-16T07:30:08;13.07;;;6.53;;
43883;SDS011;29544;52.018;5.810;2023-04-16T07:32:33;16.20;;;6.87;;
43883;SDS011;29544;52.018;5.810;2023-04-16T07:34:59;11.60;;;6.03;;
43883;SDS011;29544;52.018;5.810;2023-04-16T07:37:25;12.60;;;6.10;;
43883;SDS011;29544;52.018;5.810;2023-04-16T07:39:51;12.80;;;6.93;;
43883;SDS011;29544;52.018;5.810;2023-04-16T07:42:16;17.97;;;7.43;;
43883;SDS011;29544;52.018;5.810;2023-04-16T07:44:42;19.83;;;8.30;;
43883;SDS011;29544;52.018;5.810;2023-04-16T07:47:08;14.75;;;6.97;;
43883;SDS011;29544;52.018;5.810;2023-04-16T07:49:33;17.80;;;8.27;;
43883;SDS011;29544;52.018;5.810;2023-04-16T07:51:59;18.03;;;7.63;;
43883;SDS011;29544;52.018;5.810;2023-04-16T07:54:24;21.60;;;9.03;;
43883;SDS011;29544;52.018;5.810;2023-04-16T07:56:50;17.23;;;8.10;;
43883;SDS011;29544;52.018;5.810;2023-04-16T07:59:16;16.33;;;7.75;;
43883;SDS011;29544;52.018;5.810;2023-04-16T08:01:41;15.73;;;8.00;;
43883;SDS011;29544;52.018;5.810;2023-04-16T08:04:07;19.77;;;8.40;;
43883;SDS011;29544;52.018;5.810;2023-04-16T08:06:33;17.73;;;8.87;;
43883;SDS011;29544;52.018;5.810;2023-04-16T08:08:58;15.53;;;7.90;;
43883;SDS011;29544;52.018;5.810;2023-04-16T08:11:24;14.90;;;8.33;;
43883;SDS011;29544;52.018;5.810;2023-04-16T08:13:49;17.17;;;8.50;;
43883;SDS011;29544;52.018;5.810;2023-04-16T08:16:15;14.77;;;9.00;;
43883;SDS011;29544;52.018;5.810;2023-04-16T08:18:40;18.73;;;9.10;;
43883;SDS011;29544;52.018;5.810;2023-04-16T08:21:06;14.53;;;8.93;;
43883;SDS011;29544;52.018;5.810;2023-04-16T08:23:32;14.60;;;8.85;;
43883;SDS011;29544;52.018;5.810;2023-04-16T08:25:58;23.37;;;10.23;;
43883;SDS011;29544;52.018;5.810;2023-04-16T08:28:24;13.55;;;9.38;;
43883;SDS011;29544;52.018;5.810;2023-04-16T08:30:50;17.97;;;9.33;;
43883;SDS011;29544;52.018;5.810;2023-04-16T08:33:15;19.30;;;10.33;;
43883;SDS011;29544;52.018;5.810;2023-04-16T08:35:41;23.53;;;10.60;;
43883;SDS011;29544;52.018;5.810;2023-04-16T08:38:06;20.10;;;9.03;;
43883;SDS011;29544;52.018;5.810;2023-04-16T08:40:32;15.27;;;10.10;;
43883;SDS011;29544;52.018;5.810;2023-04-16T08:43:01;14.30;;;9.57;;
43883;SDS011;29544;52.018;5.810;2023-04-16T08:45:33;19.65;;;10.45;;
43883;SDS011;29544;52.018;5.810;2023-04-16T08:47:59;20.17;;;9.70;;
43883;SDS011;29544;52.018;5.810;2023-04-16T08:50:25;19.92;;;10.50;;
43883;SDS011;29544;52.018;5.810;2023-04-16T08:52:58;17.73;;;10.15;;
43883;SDS011;29544;52.018;5.810;2023-04-16T08:55:39;17.38;;;10.35;;
43883;SDS011;29544;52.018;5.810;2023-04-16T08:58:28;17.17;;;10.13;;
43883;SDS011;29544;52.018;5.810;2023-04-16T09:00:55;16.95;;;10.82;;
43883;SDS011;29544;52.018;5.810;2023-04-16T09:03:21;19.43;;;11.20;;
43883;SDS011;29544;52.018;5.810;2023-04-16T09:05:47;14.67;;;9.63;;
43883;SDS011;29544;52.018;5.810;2023-04-16T09:08:13;19.33;;;10.25;;
43883;SDS011;29544;52.018;5.810;2023-04-16T09:10:39;23.20;;;10.20;;
43883;SDS011;29544;52.018;5.810;2023-04-16T09:13:05;18.00;;;9.40;;
43883;SDS011;29544;52.018;5.810;2023-04-16T09:15:32;19.42;;;10.57;;
43883;SDS011;29544;52.018;5.810;2023-04-16T09:17:59;17.98;;;9.77;;
43883;SDS011;29544;52.018;5.810;2023-04-16T09:20:24;14.27;;;9.07;;
43883;SDS011;29544;52.018;5.810;2023-04-16T09:22:50;13.87;;;8.67;;
43883;SDS011;29544;52.018;5.810;2023-04-16T09:25:15;16.93;;;9.20;;
43883;SDS011;29544;52.018;5.810;2023-04-16T09:27:41;14.20;;;8.73;;
43883;SDS011;29544;52.018;5.810;2023-04-16T09:32:49;15.15;;;8.32;;
43883;SDS011;29544;52.018;5.810;2023-04-16T09:35:17;12.80;;;7.13;;
43883;SDS011;29544;52.018;5.810;2023-04-16T09:37:43;12.65;;;7.60;;
43883;SDS011;29544;52.018;5.810;2023-04-16T09:40:22;15.10;;;8.13;;
43883;SDS011;29544;52.018;5.810;2023-04-16T09:42:49;15.85;;;8.05;;
43883;SDS011;29544;52.018;5.810;2023-04-16T09:45:16;12.65;;;6.45;;
43883;SDS011;29544;52.018;5.810;2023-04-16T09:47:42;13.50;;;7.43;;
43883;SDS011;29544;52.018;5.810;2023-04-16T09:50:09;10.55;;;6.68;;
43883;SDS011;29544;52.018;5.810;2023-04-16T09:52:40;11.63;;;7.30;;
43883;SDS011;29544;52.018;5.810;2023-04-16T09:55:08;12.48;;;6.90;;
43883;SDS011;29544;52.018;5.810;2023-04-16T09:57:35;12.27;;;8.07;;
43883;SDS011;29544;52.018;5.810;2023-04-16T10:00:02;12.77;;;7.30;;
43883;SDS011;29544;52.018;5.810;2023-04-16T10:02:30;12.80;;;6.85;;
43883;SDS011;29544;52.018;5.810;2023-04-16T10:04:56;9.85;;;7.15;;
43883;SDS011;29544;52.018;5.810;2023-04-16T10:07:27;9.52;;;6.18;;
43883;SDS011;29544;52.018;5.810;2023-04-16T10:09:54;9.57;;;6.25;;
43883;SDS011;29544;52.018;5.810;2023-04-16T10:12:20;10.13;;;6.30;;
43883;SDS011;29544;52.018;5.810;2023-04-16T10:14:46;14.05;;;6.95;;
43883;SDS011;29544;52.018;5.810;2023-04-16T10:17:11;10.03;;;6.20;;
43883;SDS011;29544;52.018;5.810;2023-04-16T10:19:37;11.33;;;6.50;;
43883;SDS011;29544;52.018;5.810;2023-04-16T10:22:03;9.45;;;6.28;;
43883;SDS011;29544;52.018;5.810;2023-04-16T10:24:29;11.70;;;6.55;;
43883;SDS011;29544;52.018;5.810;2023-04-16T10:26:57;9.95;;;5.97;;
43883;SDS011;29544;52.018;5.810;2023-04-16T10:29:23;9.57;;;5.82;;
43883;SDS011;29544;52.018;5.810;2023-04-16T10:31:51;9.93;;;6.10;;
43883;SDS011;29544;52.018;5.810;2023-04-16T10:34:17;10.43;;;5.78;;
43883;SDS011;29544;52.018;5.810;2023-04-16T10:39:16;12.02;;;6.20;;
43883;SDS011;29544;52.018;5.810;2023-04-16T10:41:44;11.50;;;6.60;;
43883;SDS011;29544;52.018;5.810;2023-04-16T10:44:09;10.73;;;6.03;;
43883;SDS011;29544;52.018;5.810;2023-04-16T10:46:36;16.13;;;6.67;;
43883;SDS011;29544;52.018;5.810;2023-04-16T10:49:19;11.23;;;6.40;;
43883;SDS011;29544;52.018;5.810;2023-04-16T10:51:51;10.88;;;6.68;;
43883;SDS011;29544;52.018;5.810;2023-04-16T10:54:29;11.15;;;6.25;;
43883;SDS011;29544;52.018;5.810;2023-04-16T10:56:56;8.50;;;5.93;;
43883;SDS011;29544;52.018;5.810;2023-04-16T10:59:23;13.32;;;6.25;;
43883;SDS011;29544;52.018;5.810;2023-04-16T11:01:51;9.77;;;6.30;;
43883;SDS011;29544;52.018;5.810;2023-04-16T11:06:59;9.83;;;6.23;;
43883;SDS011;29544;52.018;5.810;2023-04-16T11:09:42;10.05;;;6.20;;
43883;SDS011;29544;52.018;5.810;2023-04-16T11:12:12;11.32;;;5.57;;
43883;SDS011;29544;52.018;5.810;2023-04-16T11:14:40;10.45;;;6.20;;
43883;SDS011;29544;52.018;5.810;2023-04-16T11:17:06;8.27;;;5.60;;
43883;SDS011;29544;52.018;5.810;2023-04-16T11:19:34;10.20;;;6.60;;
43883;SDS011;29544;52.018;5.810;2023-04-16T11:21:59;9.77;;;5.45;;
43883;SDS011;29544;52.018;5.810;2023-04-16T11:24:29;8.55;;;6.00;;
43883;SDS011;29544;52.018;5.810;2023-04-16T11:26:55;8.00;;;5.35;;
43883;SDS011;29544;52.018;5.810;2023-04-16T11:29:20;12.57;;;5.67;;
43883;SDS011;29544;52.018;5.810;2023-04-16T11:31:49;10.00;;;6.07;;
43883;SDS011;29544;52.018;5.810;2023-04-16T11:34:19;9.48;;;5.80;;
43883;SDS011;29544;52.018;5.810;2023-04-16T11:36:48;8.82;;;5.82;;
43883;SDS011;29544;52.018;5.810;2023-04-16T11:39:14;10.68;;;5.90;;
43883;SDS011;29544;52.018;5.810;2023-04-16T11:41:47;11.53;;;6.13;;
43883;SDS011;29544;52.018;5.810;2023-04-16T11:44:21;8.82;;;5.32;;
43883;SDS011;29544;52.018;5.810;2023-04-16T11:46:49;11.15;;;6.53;;
43883;SDS011;29544;52.018;5.810;2023-04-16T11:51:42;10.98;;;6.65;;
43883;SDS011;29544;52.018;5.810;2023-04-16T11:54:09;10.45;;;6.20;;
43883;SDS011;29544;52.018;5.810;2023-04-16T11:56:45;11.10;;;6.40;;
43883;SDS011;29544;52.018;5.810;2023-04-16T11:59:13;11.32;;;6.47;;
43883;SDS011;29544;52.018;5.810;2023-04-16T12:01:39;11.05;;;5.88;;
43883;SDS011;29544;52.018;5.810;2023-04-16T12:04:06;12.77;;;6.40;;
43883;SDS011;29544;52.018;5.810;2023-04-16T12:06:32;9.27;;;6.10;;
43883;SDS011;29544;52.018;5.810;2023-04-16T12:08:58;8.40;;;5.60;;
43883;SDS011;29544;52.018;5.810;2023-04-16T12:14:06;11.75;;;6.82;;
43883;SDS011;29544;52.018;5.810;2023-04-16T12:16:33;11.18;;;5.88;;
43883;SDS011;29544;52.018;5.810;2023-04-16T12:18:59;8.30;;;5.03;;
43883;SDS011;29544;52.018;5.810;2023-04-16T12:21:39;12.60;;;5.63;;
43883;SDS011;29544;52.018;5.810;2023-04-16T12:24:07;11.75;;;6.28;;
43883;SDS011;29544;52.018;5.810;2023-04-16T12:26:38;8.15;;;5.47;;
43883;SDS011;29544;52.018;5.810;2023-04-16T12:29:14;11.52;;;6.10;;
43883;SDS011;29544;52.018;5.810;2023-04-16T12:31:41;9.50;;;5.88;;
43883;SDS011;29544;52.018;5.810;2023-04-16T12:34:06;11.07;;;5.80;;
43883;SDS011;29544;52.018;5.810;2023-04-16T12:36:32;11.47;;;6.17;;
43883;SDS011;29544;52.018;5.810;2023-04-16T12:38:57;7.77;;;5.27;;
43883;SDS011;29544;52.018;5.810;2023-04-16T12:41:23;10.07;;;5.80;;
43883;SDS011;29544;52.018;5.810;2023-04-16T12:43:48;10.00;;;5.80;;
43883;SDS011;29544;52.018;5.810;2023-04-16T12:46:14;13.97;;;6.30;;
43883;SDS011;29544;52.018;5.810;2023-04-16T12:48:40;10.00;;;5.97;;
43883;SDS011;29544;52.018;5.810;2023-04-16T12:51:05;11.67;;;6.03;;
43883;SDS011;29544;52.018;5.810;2023-04-16T12:53:31;9.53;;;5.90;;
43883;SDS011;29544;52.018;5.810;2023-04-16T12:55:57;10.80;;;6.23;;
43883;SDS011;29544;52.018;5.810;2023-04-16T12:58:23;10.70;;;5.82;;
43883;SDS011;29544;52.018;5.810;2023-04-16T13:00:48;12.57;;;5.47;;
43883;SDS011;29544;52.018;5.810;2023-04-16T13:03:14;8.97;;;5.60;;
43883;SDS011;29544;52.018;5.810;2023-04-16T13:05:40;7.57;;;5.37;;
43883;SDS011;29544;52.018;5.810;2023-04-16T13:08:05;7.67;;;5.03;;
43883;SDS011;29544;52.018;5.810;2023-04-16T13:10:31;8.60;;;5.70;;
43883;SDS011;29544;52.018;5.810;2023-04-16T13:12:56;8.80;;;5.53;;
43883;SDS011;29544;52.018;5.810;2023-04-16T13:15:22;10.70;;;6.10;;
43883;SDS011;29544;52.018;5.810;2023-04-16T13:17:47;9.73;;;5.53;;
43883;SDS011;29544;52.018;5.810;2023-04-16T13:20:13;8.03;;;5.43;;
43883;SDS011;29544;52.018;5.810;2023-04-16T13:22:38;10.37;;;5.67;;
43883;SDS011;29544;52.018;5.810;2023-04-16T13:25:04;8.93;;;5.33;;
43883;SDS011;29544;52.018;5.810;2023-04-16T13:27:30;10.45;;;5.82;;
43883;SDS011;29544;52.018;5.810;2023-04-16T13:29:56;7.70;;;4.93;;
43883;SDS011;29544;52.018;5.810;2023-04-16T13:32:22;8.17;;;5.17;;
43883;SDS011;29544;52.018;5.810;2023-04-16T13:34:47;10.37;;;5.77;;
43883;SDS011;29544;52.018;5.810;2023-04-16T13:37:13;9.75;;;5.22;;
43883;SDS011;29544;52.018;5.810;2023-04-16T13:39:38;12.03;;;5.50;;
43883;SDS011;29544;52.018;5.810;2023-04-16T13:42:04;7.87;;;5.40;;
43883;SDS011;29544;52.018;5.810;2023-04-16T13:44:30;8.03;;;5.10;;
43883;SDS011;29544;52.018;5.810;2023-04-16T13:46:55;10.07;;;6.17;;
43883;SDS011;29544;52.018;5.810;2023-04-16T13:49:21;10.13;;;5.37;;
43883;SDS011;29544;52.018;5.810;2023-04-16T13:51:47;8.10;;;5.22;;
43883;SDS011;29544;52.018;5.810;2023-04-16T13:54:13;11.17;;;5.43;;
43883;SDS011;29544;52.018;5.810;2023-04-16T13:56:38;8.43;;;5.73;;
43883;SDS011;29544;52.018;5.810;2023-04-16T13:59:04;10.73;;;5.68;;
43883;SDS011;29544;52.018;5.810;2023-04-16T14:01:30;9.97;;;5.40;;
43883;SDS011;29544;52.018;5.810;2023-04-16T14:03:55;7.97;;;5.27;;
43883;SDS011;29544;52.018;5.810;2023-04-16T14:06:21;7.20;;;4.90;;
43883;SDS011;29544;52.018;5.810;2023-04-16T14:08:47;8.03;;;5.53;;
43883;SDS011;29544;52.018;5.810;2023-04-16T14:11:12;8.83;;;5.30;;
43883;SDS011;29544;52.018;5.810;2023-04-16T14:13:38;7.70;;;5.13;;
43883;SDS011;29544;52.018;5.810;2023-04-16T14:16:03;7.07;;;4.47;;
43883;SDS011;29544;52.018;5.810;2023-04-16T14:18:29;7.68;;;5.18;;
43883;SDS011;29544;52.018;5.810;2023-04-16T14:20:55;8.53;;;4.70;;
43883;SDS011;29544;52.018;5.810;2023-04-16T14:23:20;8.30;;;5.30;;
43883;SDS011;29544;52.018;5.810;2023-04-16T14:25:46;8.03;;;5.13;;
43883;SDS011;29544;52.018;5.810;2023-04-16T14:28:12;10.45;;;4.55;;
43883;SDS011;29544;52.018;5.810;2023-04-16T14:30:37;7.43;;;5.40;;
43883;SDS011;29544;52.018;5.810;2023-04-16T14:33:04;9.67;;;5.20;;
43883;SDS011;29544;52.018;5.810;2023-04-16T14:35:30;7.05;;;4.60;;
43883;SDS011;29544;52.018;5.810;2023-04-16T14:37:57;8.88;;;5.25;;
43883;SDS011;29544;52.018;5.810;2023-04-16T14:40:23;7.47;;;4.47;;
43883;SDS011;29544;52.018;5.810;2023-04-16T14:42:48;9.93;;;4.80;;
43883;SDS011;29544;52.018;5.810;2023-04-16T14:45:14;9.03;;;4.93;;
43883;SDS011;29544;52.018;5.810;2023-04-16T14:47:39;11.13;;;5.37;;
43883;SDS011;29544;52.018;5.810;2023-04-16T14:50:09;8.77;;;5.38;;
43883;SDS011;29544;52.018;5.810;2023-04-16T14:52:35;8.13;;;5.28;;
43883;SDS011;29544;52.018;5.810;2023-04-16T14:55:01;8.63;;;5.47;;